createdAt,value
2022-10-14T00:00:39.244Z,25.07
2022-10-14T00:03:08.781Z,24.47
2022-10-14T00:05:41.091Z,23.17
2022-10-14T00:08:09.960Z,23.27
2022-10-14T00:10:41.685Z,24.40
2022-10-14T00:13:09.894Z,23.53
2022-10-14T00:15:41.336Z,25.10
2022-10-14T00:18:11.157Z,22.73
2022-10-14T00:20:39.331Z,23.97
2022-10-14T00:23:07.556Z,23.60
2022-10-14T00:25:38.996Z,23.57
2022-10-14T00:28:07.461Z,25.50
2022-10-14T00:30:35.816Z,23.17
2022-10-14T00:33:04.012Z,22.73
2022-10-14T00:35:33.541Z,23.53
2022-10-14T00:38:01.808Z,24.77
2022-10-14T00:40:29.980Z,25.43
2022-10-14T00:42:58.157Z,24.33
2022-10-14T00:45:27.594Z,25.87
2022-10-14T00:47:55.834Z,24.27
2022-10-14T00:50:24.145Z,24.27
2022-10-14T00:52:53.705Z,24.90
2022-10-14T00:55:21.930Z,25.37
2022-10-14T00:57:50.118Z,27.47
2022-10-14T01:00:19.476Z,24.97
2022-10-14T01:02:48.041Z,26.23
2022-10-14T01:05:17.006Z,25.17
2022-10-14T01:07:54.315Z,25.17
2022-10-14T01:10:27.167Z,25.50
2022-10-14T01:13:03.429Z,25.60
2022-10-14T01:15:36.048Z,25.40
2022-10-14T01:18:10.524Z,23.57
2022-10-14T01:20:51.313Z,24.17
2022-10-14T01:23:38.246Z,26.17
2022-10-14T01:26:15.989Z,24.70
2022-10-14T01:28:47.999Z,24.67
2022-10-14T01:31:19.769Z,26.33
2022-10-14T01:33:50.818Z,24.37
2022-10-14T01:36:21.829Z,24.53
2022-10-14T01:41:33.331Z,25.00
2022-10-14T01:44:04.068Z,26.17
2022-10-14T01:46:35.059Z,27.30
2022-10-14T01:49:05.548Z,27.83
2022-10-14T01:51:38.175Z,27.30
2022-10-14T01:54:08.332Z,26.07
2022-10-14T01:56:40.507Z,26.40
2022-10-14T01:59:09.691Z,25.70
2022-10-14T02:01:39.385Z,26.60
2022-10-14T02:04:15.676Z,25.10
2022-10-14T02:06:45.170Z,27.30
2022-10-14T02:09:16.890Z,26.97
2022-10-14T02:11:49.260Z,23.43
2022-10-14T02:14:22.117Z,25.07
2022-10-14T02:16:57.000Z,23.90
2022-10-14T02:19:28.331Z,24.50
2022-10-14T02:21:59.859Z,25.13
2022-10-14T02:24:30.626Z,26.33
2022-10-14T02:27:01.860Z,24.50
2022-10-14T02:29:31.142Z,24.77
2022-10-14T02:32:01.454Z,22.97
2022-10-14T02:34:29.674Z,23.37
2022-10-14T02:36:57.947Z,23.43
2022-10-14T02:39:29.668Z,25.23
2022-10-14T02:41:58.007Z,24.53
2022-10-14T02:44:26.236Z,23.83
2022-10-14T02:46:56.582Z,24.23
2022-10-14T02:49:26.144Z,24.17
2022-10-14T02:51:54.380Z,23.23
2022-10-14T02:54:22.624Z,25.13
2022-10-14T02:56:50.835Z,27.30
2022-10-14T02:59:19.041Z,24.10
2022-10-14T03:01:47.316Z,23.13
2022-10-14T03:04:15.548Z,24.07
2022-10-14T03:06:45.197Z,23.00
2022-10-14T03:09:13.414Z,23.53
2022-10-14T03:11:41.617Z,24.40
2022-10-14T03:14:09.876Z,26.43
2022-10-14T03:16:38.376Z,25.93
2022-10-14T03:19:06.665Z,22.30
2022-10-14T03:21:34.973Z,25.87
2022-10-14T03:24:04.620Z,23.90
2022-10-14T03:26:32.867Z,24.07
2022-10-14T03:29:01.116Z,24.80
2022-10-14T03:31:29.408Z,25.73
2022-10-14T03:33:57.632Z,25.77
2022-10-14T03:36:25.860Z,24.13
2022-10-14T03:38:54.125Z,24.17
2022-10-14T03:41:23.748Z,23.67
2022-10-14T03:43:52.007Z,23.50
2022-10-14T03:46:20.248Z,22.80
2022-10-14T03:48:48.496Z,26.47
2022-10-14T03:51:17.309Z,26.33
2022-10-14T03:53:45.564Z,23.40
2022-10-14T03:56:13.819Z,21.93
2022-10-14T03:58:43.599Z,23.67
2022-10-14T04:01:11.842Z,25.57
2022-10-14T04:03:41.926Z,23.90
2022-10-14T04:06:10.252Z,22.60
2022-10-14T04:08:38.544Z,22.27
2022-10-14T04:11:06.904Z,25.07
2022-10-14T04:13:36.517Z,26.13
2022-10-14T04:16:06.738Z,26.13
2022-10-14T04:18:35.315Z,24.63
2022-10-14T04:21:03.852Z,26.03
2022-10-14T04:23:32.255Z,27.20
2022-10-14T04:26:00.470Z,32.07
2022-10-14T04:28:28.784Z,29.70
2022-10-14T04:30:57.093Z,30.67
2022-10-14T04:33:26.767Z,31.37
2022-10-14T04:35:58.886Z,34.13
2022-10-14T04:38:27.240Z,28.70
2022-10-14T04:40:55.659Z,29.73
2022-10-14T04:43:24.116Z,27.33
2022-10-14T04:45:52.360Z,26.13
2022-10-14T04:48:20.580Z,29.67
2022-10-14T04:50:51.529Z,26.20
2022-10-14T04:53:22.262Z,28.03
2022-10-14T04:55:51.726Z,29.17
2022-10-14T04:58:20.074Z,32.47
2022-10-14T05:00:48.295Z,30.37
2022-10-14T05:03:16.498Z,28.73
2022-10-14T05:05:44.880Z,28.23
2022-10-14T05:08:14.513Z,31.53
2022-10-14T05:10:42.759Z,32.40
2022-10-14T05:13:10.989Z,28.83
2022-10-14T05:15:39.248Z,28.20
2022-10-14T05:18:07.538Z,32.07
2022-10-14T05:20:37.739Z,31.20
2022-10-14T05:23:06.057Z,31.63
2022-10-14T05:25:35.826Z,31.00
2022-10-14T05:28:04.060Z,38.63
2022-10-14T05:30:34.834Z,31.53
2022-10-14T05:33:03.439Z,32.57
2022-10-14T05:35:57.070Z,31.30
2022-10-14T05:38:19.952Z,28.87
2022-10-14T05:40:54.639Z,26.67
2022-10-14T05:43:29.382Z,29.77
2022-10-14T05:46:00.285Z,32.40
2022-10-14T05:48:28.554Z,30.43
2022-10-14T05:51:01.509Z,31.37
2022-10-14T05:53:30.452Z,30.33
2022-10-14T05:56:04.310Z,33.63
2022-10-14T05:58:32.642Z,33.43
2022-10-14T06:01:01.795Z,34.23
2022-10-14T06:03:30.225Z,32.47
2022-10-14T06:05:58.665Z,35.10
2022-10-14T06:08:27.339Z,32.20
2022-10-14T06:10:55.719Z,34.37
2022-10-14T06:13:25.487Z,33.83
2022-10-14T06:15:53.842Z,35.27
2022-10-14T06:18:22.207Z,38.37
2022-10-14T06:20:54.423Z,38.10
2022-10-14T06:23:31.414Z,37.83
2022-10-14T06:25:59.795Z,37.13
2022-10-14T06:28:29.561Z,35.53
2022-10-14T06:30:57.983Z,37.27
2022-10-14T06:33:26.331Z,36.83
2022-10-14T06:35:54.596Z,35.17
2022-10-14T06:38:22.946Z,36.77
2022-10-14T06:40:52.030Z,38.87
2022-10-14T06:43:20.620Z,39.53
2022-10-14T06:45:50.742Z,39.97
2022-10-14T06:48:19.020Z,42.80
2022-10-14T06:50:47.293Z,45.40
2022-10-14T06:53:15.686Z,45.83
2022-10-14T06:55:44.105Z,49.53
2022-10-14T06:58:12.565Z,45.87
2022-10-14T07:00:45.628Z,50.43
2022-10-14T07:03:17.557Z,45.27
2022-10-14T07:05:45.883Z,48.13
2022-10-14T07:08:15.545Z,45.67
2022-10-14T07:10:44.216Z,40.13
2022-10-14T07:13:12.494Z,46.60
2022-10-14T07:15:43.805Z,48.13
2022-10-14T07:18:12.186Z,45.20
2022-10-14T07:20:41.993Z,41.87
2022-10-14T07:23:10.447Z,46.70
2022-10-14T07:25:38.696Z,43.63
2022-10-14T07:28:07.408Z,41.07
2022-10-14T07:30:35.770Z,41.13
2022-10-14T07:33:04.352Z,38.40
2022-10-14T07:35:32.738Z,44.23
2022-10-14T07:38:02.501Z,43.03
2022-10-14T07:40:30.833Z,47.17
2022-10-14T07:42:59.268Z,44.27
2022-10-14T07:45:35.943Z,42.33
2022-10-14T07:48:04.334Z,44.57
2022-10-14T07:50:32.626Z,42.73
2022-10-14T07:53:02.333Z,43.13
2022-10-14T07:55:30.632Z,46.50
2022-10-14T07:57:58.956Z,40.10
2022-10-14T08:00:27.435Z,37.70
2022-10-14T08:02:56.111Z,42.60
2022-10-14T08:05:39.746Z,41.73
2022-10-14T08:08:09.395Z,41.73
2022-10-14T08:10:38.532Z,36.20
2022-10-14T08:13:07.067Z,41.50
2022-10-14T08:15:38.643Z,33.60
2022-10-14T08:18:06.990Z,35.73
2022-10-14T08:20:35.656Z,35.47
2022-10-14T08:23:04.031Z,35.87
2022-10-14T08:25:33.649Z,35.67
2022-10-14T08:28:02.001Z,35.93
2022-10-14T08:30:30.369Z,33.40
2022-10-14T08:33:00.044Z,33.33
2022-10-14T08:35:28.392Z,31.93
2022-10-14T08:37:58.065Z,29.80
2022-10-14T08:40:27.266Z,30.30
2022-10-14T08:43:00.594Z,28.13
2022-10-14T08:45:32.227Z,26.83
2022-10-14T08:48:01.693Z,29.43
2022-10-14T08:50:33.057Z,27.20
2022-10-14T08:53:04.334Z,24.30
2022-10-14T08:55:37.770Z,24.37
2022-10-14T08:58:11.350Z,22.07
2022-10-14T09:00:42.205Z,21.17
2022-10-14T09:03:16.412Z,18.47
2022-10-14T09:05:49.258Z,16.30
2022-10-14T09:08:18.865Z,16.47
2022-10-14T09:10:47.308Z,16.23
2022-10-14T09:13:19.399Z,17.63
2022-10-14T09:15:49.816Z,15.80
2022-10-14T09:18:22.153Z,14.90
2022-10-14T09:20:50.618Z,15.77
2022-10-14T09:23:20.018Z,15.83
2022-10-14T09:25:53.148Z,17.07
2022-10-14T09:28:23.035Z,16.57
2022-10-14T09:30:51.476Z,16.13
2022-10-14T09:33:20.898Z,16.30
2022-10-14T09:35:50.004Z,14.87
2022-10-14T09:38:18.832Z,19.30
2022-10-14T09:40:49.076Z,15.37
2022-10-14T09:43:19.027Z,14.90
2022-10-14T09:45:57.544Z,13.93
2022-10-14T09:48:33.519Z,13.70
2022-10-14T09:51:02.695Z,12.77
2022-10-14T09:53:32.743Z,11.73
2022-10-14T09:56:02.776Z,12.53
2022-10-14T09:58:33.030Z,10.00
2022-10-14T10:01:03.129Z,9.07
2022-10-14T10:03:33.591Z,8.63
2022-10-14T10:06:03.173Z,8.07
2022-10-14T10:08:31.473Z,7.60
2022-10-14T10:11:05.492Z,7.40
2022-10-14T10:13:39.365Z,8.00
2022-10-14T10:16:10.101Z,7.37
2022-10-14T10:18:38.415Z,7.37
2022-10-14T10:21:08.374Z,7.23
2022-10-14T10:23:37.822Z,7.00
2022-10-14T10:26:16.698Z,7.97
2022-10-14T10:28:48.394Z,8.77
2022-10-14T10:31:26.088Z,9.23
2022-10-14T10:33:58.076Z,8.53
2022-10-14T10:36:31.881Z,8.87
2022-10-14T10:39:01.497Z,9.50
2022-10-14T10:41:36.302Z,9.37
2022-10-14T10:44:17.396Z,10.60
2022-10-14T10:46:56.313Z,10.33
2022-10-14T10:49:36.288Z,8.23
2022-10-14T10:52:09.234Z,8.60
2022-10-14T10:54:43.320Z,7.80
2022-10-14T10:57:15.052Z,8.03
2022-10-14T10:59:50.118Z,7.87
2022-10-14T11:02:39.710Z,8.83
2022-10-14T11:05:11.816Z,7.77
2022-10-14T11:08:02.005Z,9.90
2022-10-14T11:10:51.825Z,7.40
2022-10-14T11:13:23.811Z,7.17
2022-10-14T11:15:56.198Z,6.67
2022-10-14T11:18:31.660Z,5.53
2022-10-14T11:21:06.044Z,5.93
2022-10-14T11:23:39.453Z,5.33
2022-10-14T11:26:11.654Z,5.60
2022-10-14T11:28:46.067Z,5.40
2022-10-14T11:31:20.591Z,5.37
2022-10-14T11:33:57.491Z,5.23
2022-10-14T11:36:31.485Z,5.43
2022-10-14T11:39:05.918Z,5.30
2022-10-14T11:41:38.775Z,5.63
2022-10-14T11:44:09.221Z,5.33
2022-10-14T11:46:39.599Z,5.73
2022-10-14T11:49:15.462Z,5.70
2022-10-14T11:51:47.366Z,5.93
2022-10-14T11:54:18.441Z,5.83
2022-10-14T11:56:49.628Z,5.60
2022-10-14T11:59:31.437Z,5.83
2022-10-14T12:02:01.999Z,5.90
2022-10-14T12:04:33.561Z,6.57
2022-10-14T12:07:05.718Z,6.40
2022-10-14T12:09:39.349Z,5.70
2022-10-14T12:12:09.064Z,6.13
2022-10-14T12:14:38.964Z,5.77
2022-10-14T12:17:09.472Z,6.50
2022-10-14T12:19:39.209Z,6.40
2022-10-14T12:22:11.259Z,7.03
2022-10-14T12:24:41.395Z,6.63
2022-10-14T12:27:12.002Z,6.97
2022-10-14T12:29:42.841Z,6.43
2022-10-14T12:32:20.905Z,6.30
2022-10-14T12:34:51.721Z,6.70
2022-10-14T12:37:50.434Z,7.00
2022-10-14T12:40:24.809Z,6.87
2022-10-14T12:43:11.278Z,6.80
2022-10-14T12:45:48.304Z,6.43
2022-10-14T12:48:19.165Z,5.70
2022-10-14T12:50:49.287Z,6.80
2022-10-14T12:53:21.604Z,5.50
2022-10-14T12:55:51.126Z,5.57
2022-10-14T12:58:27.739Z,5.50
2022-10-14T13:00:57.169Z,5.70
2022-10-14T13:03:27.451Z,5.50
2022-10-14T13:06:17.159Z,4.80
2022-10-14T13:09:06.840Z,4.70
2022-10-14T13:11:35.174Z,3.83
2022-10-14T13:14:04.100Z,3.77
2022-10-14T13:16:50.915Z,4.53
2022-10-14T13:19:34.037Z,11.17
2022-10-14T13:22:03.206Z,4.30
2022-10-14T13:24:35.240Z,4.43
2022-10-14T13:27:09.540Z,4.90
2022-10-14T13:29:56.619Z,4.60
2022-10-14T13:32:30.798Z,4.70
2022-10-14T13:35:02.957Z,5.27
2022-10-14T13:37:32.634Z,4.23
2022-10-14T13:40:09.651Z,4.63
2022-10-14T13:42:39.126Z,4.40
2022-10-14T13:45:08.772Z,4.43
2022-10-14T13:47:37.599Z,4.10
2022-10-14T13:50:06.483Z,3.80
2022-10-14T13:52:35.863Z,4.20
2022-10-14T13:55:14.649Z,4.50
2022-10-14T13:58:11.035Z,3.90
2022-10-14T14:00:41.194Z,6.27
2022-10-14T14:03:17.600Z,3.53
2022-10-14T14:05:46.047Z,3.73
2022-10-14T14:11:23.123Z,3.90
2022-10-14T14:13:59.254Z,4.33
2022-10-14T14:16:31.614Z,3.73
2022-10-14T14:19:09.223Z,3.43
2022-10-14T14:21:40.517Z,3.13
2022-10-14T14:24:17.370Z,4.37
2022-10-14T14:26:47.441Z,3.83
2022-10-14T14:29:18.377Z,4.40
2022-10-14T14:34:37.491Z,5.23
2022-10-14T14:40:00.123Z,4.27
2022-10-14T14:42:30.958Z,4.83
2022-10-14T14:45:01.394Z,4.93
2022-10-14T14:47:30.212Z,4.93
2022-10-14T14:50:18.249Z,4.90
2022-10-14T14:52:48.671Z,5.10
2022-10-14T14:55:35.950Z,5.40
2022-10-14T14:58:07.350Z,6.00
2022-10-14T15:00:35.866Z,6.17
2022-10-14T15:03:05.399Z,5.10
2022-10-14T15:05:34.169Z,5.67
2022-10-14T15:08:02.477Z,5.83
2022-10-14T15:10:32.472Z,5.83
2022-10-14T15:13:02.698Z,5.40
2022-10-14T15:15:38.123Z,5.67
2022-10-14T15:18:10.210Z,6.70
2022-10-14T15:20:38.834Z,7.00
2022-10-14T15:23:21.943Z,6.77
2022-10-14T15:25:58.670Z,6.10
2022-10-14T15:28:31.437Z,6.30
2022-10-14T15:31:04.841Z,6.30
2022-10-14T15:33:36.111Z,6.90
2022-10-14T15:36:12.473Z,7.60
2022-10-14T15:38:41.062Z,6.43
2022-10-14T15:41:11.615Z,7.43
2022-10-14T15:43:40.530Z,5.50
2022-10-14T15:46:31.906Z,5.90
2022-10-14T15:49:03.543Z,5.70
2022-10-14T15:51:32.371Z,4.73
2022-10-14T15:54:00.752Z,5.43
2022-10-14T15:56:30.799Z,5.43
2022-10-14T15:58:59.196Z,5.60
2022-10-14T16:01:28.973Z,8.67
2022-10-14T16:03:58.023Z,5.03
2022-10-14T16:06:29.348Z,7.00
2022-10-14T16:08:57.666Z,8.50
2022-10-14T16:11:28.091Z,7.40
2022-10-14T16:13:56.730Z,7.57
2022-10-14T16:16:28.508Z,7.90
2022-10-14T16:18:58.301Z,7.00
2022-10-14T16:21:27.219Z,8.10
2022-10-14T16:23:55.443Z,6.40
2022-10-14T16:26:24.921Z,5.80
2022-10-14T16:28:53.284Z,6.57
2022-10-14T16:31:22.275Z,6.57
2022-10-14T16:33:51.211Z,6.50
2022-10-14T16:36:21.276Z,6.93
2022-10-14T16:38:49.993Z,6.50
2022-10-14T16:41:18.365Z,7.20
2022-10-14T16:43:47.432Z,8.43
2022-10-14T16:46:16.291Z,8.07
2022-10-14T16:48:44.611Z,7.97
2022-10-14T16:51:12.946Z,8.00
2022-10-14T16:53:44.804Z,9.00
2022-10-14T16:56:31.773Z,8.40
2022-10-14T16:59:00.496Z,8.27
2022-10-14T17:01:29.056Z,8.63
2022-10-14T17:03:57.797Z,9.57
2022-10-14T17:06:26.500Z,10.73
2022-10-14T17:08:56.278Z,10.43
2022-10-14T17:11:24.842Z,10.50
2022-10-14T17:13:53.626Z,10.23
2022-10-14T17:16:22.434Z,11.23
2022-10-14T17:18:50.772Z,12.43
2022-10-14T17:21:19.117Z,12.50
2022-10-14T17:23:48.034Z,13.63
2022-10-14T17:26:18.873Z,13.97
2022-10-14T17:28:48.692Z,13.97
2022-10-14T17:31:18.935Z,14.33
2022-10-14T17:33:47.262Z,15.67
2022-10-14T17:36:19.414Z,17.63
2022-10-14T17:38:47.821Z,15.87
2022-10-14T17:41:17.142Z,15.50
2022-10-14T17:43:49.446Z,17.20
2022-10-14T17:46:19.069Z,17.20
2022-10-14T17:48:50.161Z,16.43
2022-10-14T17:51:18.511Z,16.87
2022-10-14T17:53:46.853Z,16.73
2022-10-14T17:56:15.285Z,16.67
2022-10-14T17:58:43.492Z,17.10
2022-10-14T18:01:13.895Z,17.83
2022-10-14T18:03:43.324Z,17.57
2022-10-14T18:06:13.330Z,17.43
2022-10-14T18:08:42.001Z,17.63
2022-10-14T18:11:11.217Z,18.03
2022-10-14T18:16:15.275Z,17.20
2022-10-14T18:18:43.880Z,15.70
2022-10-14T18:21:12.337Z,16.17
2022-10-14T18:23:41.670Z,15.00
2022-10-14T18:26:13.313Z,13.70
2022-10-14T18:28:43.110Z,13.00
2022-10-14T18:31:12.231Z,15.13
2022-10-14T18:33:42.501Z,13.10
2022-10-14T18:36:11.612Z,13.53
2022-10-14T18:38:39.985Z,14.33
2022-10-14T18:41:09.462Z,15.80
2022-10-14T18:43:37.797Z,15.03
2022-10-14T18:46:06.760Z,14.53
2022-10-14T18:48:35.045Z,14.30
2022-10-14T18:51:05.519Z,14.87
2022-10-14T18:53:35.085Z,14.63
2022-10-14T18:56:09.755Z,14.77
2022-10-14T18:58:38.429Z,14.80
2022-10-14T19:01:07.196Z,15.43
2022-10-14T19:03:36.067Z,15.07
2022-10-14T19:06:06.721Z,15.67
2022-10-14T19:08:36.848Z,15.60
2022-10-14T19:11:05.432Z,16.00
2022-10-14T19:13:34.114Z,15.87
2022-10-14T19:16:02.767Z,16.40
2022-10-14T19:18:31.134Z,16.67
2022-10-14T19:21:05.943Z,17.00
2022-10-14T19:23:34.215Z,17.07
2022-10-14T19:26:05.242Z,17.27
2022-10-14T19:28:33.659Z,17.30
2022-10-14T19:31:06.605Z,18.73
2022-10-14T19:33:36.602Z,18.33
2022-10-14T19:36:07.212Z,18.10
2022-10-14T19:38:35.651Z,19.00
2022-10-14T19:41:04.772Z,19.17
2022-10-14T19:43:33.305Z,19.43
2022-10-14T19:46:02.737Z,18.27
2022-10-14T19:48:31.010Z,18.40
2022-10-14T19:51:05.996Z,18.47
2022-10-14T19:53:36.987Z,19.40
2022-10-14T19:56:05.837Z,20.03
2022-10-14T19:58:34.486Z,19.50
2022-10-14T20:01:08.619Z,20.60
2022-10-14T20:03:37.328Z,19.90
2022-10-14T20:06:06.065Z,20.10
2022-10-14T20:08:34.416Z,19.87
2022-10-14T20:11:04.730Z,20.20
2022-10-14T20:13:32.916Z,19.87
2022-10-14T20:16:01.861Z,20.07
2022-10-14T20:18:30.609Z,20.37
2022-10-14T20:20:59.186Z,20.57
2022-10-14T20:23:27.516Z,20.20
2022-10-14T20:26:01.208Z,20.10
2022-10-14T20:28:30.759Z,19.30
2022-10-14T20:30:59.033Z,20.57
2022-10-14T20:33:27.290Z,21.43
2022-10-14T20:36:02.332Z,21.07
2022-10-14T20:38:30.910Z,21.37
2022-10-14T20:41:04.496Z,21.00
2022-10-14T20:43:34.204Z,20.73
2022-10-14T20:46:02.458Z,21.30
2022-10-14T20:48:30.667Z,20.37
2022-10-14T20:50:58.885Z,20.40
2022-10-14T20:53:28.787Z,20.53
2022-10-14T20:56:02.363Z,19.40
2022-10-14T20:58:30.559Z,18.13
2022-10-14T21:01:06.899Z,17.60
2022-10-14T21:03:35.159Z,16.20
2022-10-14T21:06:04.101Z,18.03
2022-10-14T21:08:32.326Z,19.07
2022-10-14T21:11:00.612Z,20.83
2022-10-14T21:13:28.999Z,19.73
2022-10-14T21:15:57.296Z,21.17
2022-10-14T21:18:27.565Z,20.10
2022-10-14T21:20:55.787Z,25.07
2022-10-14T21:23:23.940Z,27.80
2022-10-14T21:25:56.475Z,25.87
2022-10-14T21:28:25.031Z,23.63
2022-10-14T21:30:53.273Z,23.40
2022-10-14T21:33:21.442Z,23.03
2022-10-14T21:35:51.026Z,21.97
2022-10-14T21:38:20.164Z,21.63
2022-10-14T21:40:48.374Z,21.80
2022-10-14T21:43:16.611Z,21.60
2022-10-14T21:45:44.765Z,20.77
2022-10-14T21:48:12.969Z,22.40
2022-10-14T21:50:41.128Z,21.90
2022-10-14T21:53:12.610Z,19.70
2022-10-14T21:55:43.524Z,21.63
2022-10-14T21:58:11.693Z,21.60
2022-10-14T22:00:39.896Z,22.10
2022-10-14T22:03:08.037Z,19.77
2022-10-14T22:05:36.225Z,21.47
2022-10-14T22:08:04.472Z,20.83
2022-10-14T22:10:44.688Z,19.47
2022-10-14T22:13:13.149Z,20.30
2022-10-14T22:15:44.740Z,21.13
2022-10-14T22:18:12.917Z,22.03
2022-10-14T22:20:41.099Z,23.70
2022-10-14T22:23:09.340Z,21.47
2022-10-14T22:25:38.877Z,21.77
2022-10-14T22:28:07.328Z,20.57
2022-10-14T22:30:35.876Z,20.40
2022-10-14T22:33:04.102Z,20.43
2022-10-14T22:35:32.332Z,20.37
2022-10-14T22:38:00.632Z,19.77
2022-10-14T22:40:28.846Z,18.30
2022-10-14T22:42:58.396Z,18.83
2022-10-14T22:45:26.666Z,20.23
2022-10-14T22:47:54.832Z,24.67
2022-10-14T22:50:23.060Z,22.60
2022-10-14T22:52:51.232Z,19.00
2022-10-14T22:55:19.464Z,22.53
2022-10-14T22:57:47.635Z,20.93
2022-10-14T23:00:18.052Z,22.70
2022-10-14T23:02:47.282Z,23.53
2022-10-14T23:05:15.522Z,21.90
2022-10-14T23:07:43.680Z,21.73
2022-10-14T23:10:11.886Z,23.23
2022-10-14T23:12:40.111Z,25.87
2022-10-14T23:15:08.724Z,23.37
2022-10-14T23:17:38.221Z,23.83
2022-10-14T23:20:06.723Z,23.63
2022-10-14T23:22:35.151Z,26.00
2022-10-14T23:25:03.310Z,24.20
2022-10-14T23:27:34.173Z,25.23
2022-10-14T23:30:04.482Z,27.00
2022-10-14T23:32:32.672Z,25.13
2022-10-14T23:35:02.340Z,24.40
2022-10-14T23:37:30.998Z,25.90
2022-10-14T23:40:01.593Z,23.57
2022-10-14T23:42:29.863Z,25.50
2022-10-14T23:44:58.042Z,27.23
2022-10-14T23:47:26.353Z,23.93
2022-10-14T23:49:54.602Z,23.50
2022-10-14T23:52:24.207Z,24.53
2022-10-14T23:54:52.441Z,26.00
2022-10-14T23:57:21.081Z,26.90
2022-10-14T23:59:49.468Z,28.80
